Time;durP1;ratioP1;P1;durP2;ratioP2;P2;SDS_P1;SDS_P2;PMS_P1;PMS_P2;Temp;Humidity;BMP_temperature;BMP_pressure;BME280_temperature;BME280_humidity;BME280_pressure;Samples;Min_cycle;Max_cycle;Signal;HPM_P1;HPM_P2
2021/06/21 00:01:12;;;;;;;2.05;1.20;;;;;;;17.94;81.01;97340.03;1701310;84;21560;-67
2021/06/21 00:03:39;;;;;;;2.83;1.00;;;;;;;17.89;80.99;97345.92;1701348;84;20966;-66
2021/06/21 00:06:06;;;;;;;1.20;1.00;;;;;;;17.89;80.88;97334.09;1701539;84;21079;-67
2021/06/21 00:08:33;;;;;;;1.65;1.05;;;;;;;17.89;80.09;97335.92;1701487;84;21544;-65
2021/06/21 00:11:00;;;;;;;1.70;1.17;;;;;;;17.90;80.40;97330.94;1701353;84;21102;-67
2021/06/21 00:13:27;;;;;;;1.65;1.10;;;;;;;17.83;81.49;97331.45;1701424;82;20978;-67
2021/06/21 00:15:54;;;;;;;1.45;1.20;;;;;;;17.83;80.58;97339.34;1701391;84;21231;-72
2021/06/21 00:18:21;;;;;;;2.40;1.12;;;;;;;17.77;81.85;97337.03;1701198;84;21533;-65
2021/06/21 00:20:49;;;;;;;1.67;0.93;;;;;;;17.71;82.58;97342.27;1701430;84;21041;-68
2021/06/21 00:23:16;;;;;;;3.72;1.00;;;;;;;17.75;81.35;97340.35;1701274;84;21037;-72
2021/06/21 00:25:44;;;;;;;1.77;1.20;;;;;;;17.75;81.23;97331.66;1701478;84;21040;-67
2021/06/21 00:28:11;;;;;;;1.20;0.90;;;;;;;17.75;81.30;97332.98;1701146;84;21006;-67
2021/06/21 00:30:38;;;;;;;1.80;1.00;;;;;;;17.73;82.06;97335.02;1701415;84;21002;-71
2021/06/21 00:33:05;;;;;;;1.32;1.12;;;;;;;17.56;83.36;97336.70;1699808;82;21093;-70
2021/06/21 00:35:32;;;;;;;1.35;0.95;;;;;;;17.58;83.22;97340.97;1652816;85;21055;-72
2021/06/21 00:37:59;;;;;;;0.98;0.72;;;;;;;17.48;83.91;97337.39;1683692;85;21562;-72
2021/06/21 00:40:27;;;;;;;3.60;1.35;;;;;;;17.50;83.48;97331.45;1652826;87;21038;-68
2021/06/21 00:42:54;;;;;;;0.98;0.80;;;;;;;17.44;84.25;97338.80;1683505;85;21172;-68
2021/06/21 00:45:23;;;;;;;3.33;1.20;;;;;;;17.39;84.49;97335.45;1652884;87;21070;-66
2021/06/21 00:47:51;;;;;;;5.12;1.82;;;;;;;17.40;84.20;97333.14;1683725;85;21094;-66
2021/06/21 00:50:22;;;;;;;6.25;2.10;;;;;;;17.22;85.52;97331.62;1652917;87;21125;-66
2021/06/21 00:52:55;;;;;;;2.72;1.70;;;;;;;17.23;85.41;97325.37;1684269;85;21037;-67
2021/06/21 00:55:23;;;;;;;5.95;2.17;;;;;;;17.13;85.89;97319.69;1653336;85;21106;-68
2021/06/21 00:57:52;;;;;;;3.08;2.08;;;;;;;17.23;84.63;97324.06;1684112;85;21133;-72
2021/06/21 01:00:23;;;;;;;3.37;1.80;;;;;;;17.22;84.82;97321.62;1632693;85;21074;-71
2021/06/21 01:02:52;;;;;;;2.52;2.05;;;;;;;17.22;85.05;97322.44;1683634;85;21157;-71
2021/06/21 01:05:23;;;;;;;2.52;1.40;;;;;;;17.16;85.39;97317.19;1652520;85;21050;-66
2021/06/21 01:07:51;;;;;;;5.55;2.72;;;;;;;17.08;85.93;97316.84;1683478;84;21616;-72
2021/06/21 01:10:22;;;;;;;4.03;2.55;;;;;;;17.07;86.04;97320.50;1652853;87;21086;-71
2021/06/21 01:13:12;;;;;;;4.30;2.62;;;;;;;17.12;85.68;97318.59;1683516;85;21081;-70
2021/06/21 01:16:16;;;;;;;2.62;1.65;;;;;;;17.20;84.94;97323.66;1652387;87;21046;-66
2021/06/21 01:19:28;;;;;;;3.45;2.47;;;;;;;17.23;84.82;97316.19;1683573;85;21104;-66
2021/06/21 01:22:43;;;;;;;4.90;3.15;;;;;;;17.18;85.21;97316.47;1652710;87;21074;-67
2021/06/21 01:25:31;;;;;;;4.60;3.12;;;;;;;17.11;85.65;97320.91;1683501;85;21117;-70
2021/06/21 01:28:06;;;;;;;4.60;3.80;;;;;;;17.12;85.18;97324.63;1652691;87;21132;-66
2021/06/21 01:30:55;;;;;;;3.25;2.67;;;;;;;17.10;85.46;97321.41;1683033;84;21179;-67
2021/06/21 01:33:24;;;;;;;4.05;2.50;;;;;;;17.02;85.82;97324.20;1681258;83;21146;-70
2021/06/21 01:36:01;;;;;;;6.33;3.10;;;;;;;17.07;85.37;97334.42;1700952;84;21561;-70
2021/06/21 01:38:39;;;;;;;6.12;3.00;;;;;;;17.03;85.60;97333.70;1701035;84;21009;-70
2021/06/21 01:41:23;;;;;;;3.92;2.72;;;;;;;17.08;85.09;97339.14;1701366;84;21002;-70
2021/06/21 01:43:52;;;;;;;4.00;2.77;;;;;;;17.07;85.27;97342.79;1701013;84;21142;-71
2021/06/21 01:46:21;;;;;;;5.28;3.60;;;;;;;17.04;85.34;97342.66;1701048;84;21584;-72
2021/06/21 01:48:56;;;;;;;3.83;2.50;;;;;;;17.08;84.61;97336.02;1700911;84;21045;-71
2021/06/21 01:51:25;;;;;;;3.45;1.77;;;;;;;17.01;85.36;97333.89;1700836;84;21077;-72
2021/06/21 01:53:56;;;;;;;3.67;1.85;;;;;;;16.98;85.18;97335.60;1701310;84;21001;-73
2021/06/21 01:56:33;;;;;;;2.67;1.35;;;;;;;17.03;84.47;97343.70;1701001;83;21093;-73
2021/06/21 01:59:04;;;;;;;4.67;1.65;;;;;;;17.07;83.99;97340.17;1701163;84;21094;-73
2021/06/21 02:01:33;;;;;;;3.12;1.52;;;;;;;17.05;84.40;97337.73;1701006;84;21232;-69
2021/06/21 02:04:02;;;;;;;2.15;1.50;;;;;;;17.05;84.42;97336.92;1700991;83;21029;-74
2021/06/21 02:06:32;;;;;;;2.40;1.27;;;;;;;16.94;84.96;97336.19;1701132;84;21037;-68
2021/06/21 02:09:02;;;;;;;2.08;1.30;;;;;;;16.98;84.62;97338.72;1701120;84;21104;-73
2021/06/21 02:11:29;;;;;;;1.40;1.20;;;;;;;17.02;84.12;97339.45;1701110;82;21250;-72
2021/06/21 02:13:57;;;;;;;2.35;1.67;;;;;;;16.94;84.85;97337.50;1701131;84;21021;-73
2021/06/21 02:16:26;;;;;;;2.30;1.50;;;;;;;16.91;85.04;97333.47;1701075;84;21120;-68
2021/06/21 02:18:54;;;;;;;2.47;1.25;;;;;;;16.96;84.43;97345.47;1701204;83;21104;-68
2021/06/21 02:21:25;;;;;;;2.95;1.25;;;;;;;16.96;84.53;97338.91;1701218;82;21049;-68
2021/06/21 02:23:54;;;;;;;1.65;0.95;;;;;;;16.93;84.42;97338.00;1679681;84;21087;-73
2021/06/21 02:26:24;;;;;;;1.50;1.07;;;;;;;16.99;83.96;97336.41;1701202;84;21241;-68
2021/06/21 02:28:54;;;;;;;2.33;1.30;;;;;;;17.05;83.64;97332.98;1701263;84;21033;-74
2021/06/21 02:31:22;;;;;;;3.10;1.67;;;;;;;17.07;83.45;97336.23;1701226;83;21069;-74
2021/06/21 02:33:49;;;;;;;1.92;1.20;;;;;;;17.07;83.45;97334.92;1701277;84;21049;-73
2021/06/21 02:36:16;;;;;;;1.70;1.20;;;;;;;17.05;83.27;97328.55;1700983;84;21149;-68
2021/06/21 02:38:43;;;;;;;2.02;1.40;;;;;;;16.97;83.91;97333.16;1701310;84;21148;-73
2021/06/21 02:41:10;;;;;;;2.08;1.12;;;;;;;16.86;84.52;97326.69;1701059;84;21072;-77
2021/06/21 02:43:37;;;;;;;2.77;1.52;;;;;;;16.88;84.00;97327.31;1701447;84;21562;-68
2021/06/21 02:46:04;;;;;;;2.20;1.40;;;;;;;16.76;84.95;97327.58;1701008;84;21687;-69
2021/06/21 02:48:31;;;;;;;5.20;1.60;;;;;;;16.73;85.18;97325.85;1701184;84;21020;-69
2021/06/21 02:51:00;;;;;;;4.25;1.77;;;;;;;16.66;85.44;97325.80;1700950;84;21180;-73
2021/06/21 02:53:51;;;;;;;3.42;1.85;;;;;;;16.73;84.98;97324.02;1701111;84;21179;-71
2021/06/21 02:56:47;;;;;;;7.47;2.50;;;;;;;16.63;85.45;97321.46;1701206;83;21262;-73
2021/06/21 02:59:18;;;;;;;3.42;1.77;;;;;;;16.68;85.13;97338.73;1659613;84;21013;-73
2021/06/21 03:01:50;;;;;;;2.25;1.82;;;;;;;16.69;85.06;97333.80;1700815;84;21190;-73
2021/06/21 03:04:19;;;;;;;3.08;1.82;;;;;;;16.61;85.59;97330.84;1701281;84;21526;-71
2021/06/21 03:06:47;;;;;;;3.33;1.70;;;;;;;16.59;85.71;97332.34;1701280;84;21057;-71
2021/06/21 03:09:18;;;;;;;2.52;1.57;;;;;;;16.70;85.13;97335.40;1701132;84;21076;-71
2021/06/21 03:11:49;;;;;;;3.72;1.80;;;;;;;16.84;84.32;97336.58;1701177;83;21565;-71
2021/06/21 03:14:23;;;;;;;4.08;1.32;;;;;;;16.88;84.16;97343.55;1695837;83;21111;-67
2021/06/21 03:16:54;;;;;;;2.25;1.30;;;;;;;17.04;83.46;97340.58;1695416;84;21536;-68
2021/06/21 03:19:21;;;;;;;2.90;1.65;;;;;;;17.13;82.87;97334.11;1696158;84;21025;-67
2021/06/21 03:21:49;;;;;;;5.62;2.20;;;;;;;17.09;83.05;97334.20;1696357;84;21528;-67
2021/06/21 03:24:25;;;;;;;3.80;2.12;;;;;;;17.10;83.07;97331.89;1696071;84;21123;-71
2021/06/21 03:26:52;;;;;;;2.55;1.75;;;;;;;17.11;83.02;97328.77;1696088;84;21041;-70
2021/06/21 03:29:22;;;;;;;4.10;1.92;;;;;;;17.21;82.43;97323.94;1696114;83;21077;-66
2021/06/21 03:31:52;;;;;;;4.72;2.92;;;;;;;17.26;82.39;97324.16;1676528;85;21041;-70
2021/06/21 03:34:23;;;;;;;2.52;1.77;;;;;;;17.26;82.46;97324.96;1693321;84;21558;-68
2021/06/21 03:36:51;;;;;;;3.08;1.87;;;;;;;17.36;81.57;97324.55;1652597;87;21141;-72
2021/06/21 03:39:18;;;;;;;3.70;1.87;;;;;;;17.46;81.44;97326.30;1683243;85;21082;-71
2021/06/21 03:41:45;;;;;;;3.40;1.60;;;;;;;17.55;80.88;97331.63;1652351;85;21015;-72
2021/06/21 03:44:12;;;;;;;3.65;2.08;;;;;;;17.64;80.35;97324.40;1683593;85;21164;-67
2021/06/21 03:46:39;;;;;;;4.03;2.25;;;;;;;17.66;80.14;97323.20;1652601;85;21050;-67
2021/06/21 03:49:06;;;;;;;5.12;2.17;;;;;;;17.63;80.17;97330.16;1684052;84;21026;-72
2021/06/21 03:51:33;;;;;;;3.98;2.12;;;;;;;17.67;79.98;97319.55;1652361;85;21582;-72
2021/06/21 03:54:00;;;;;;;3.27;2.17;;;;;;;17.71;79.80;97327.83;1683503;85;21078;-66
2021/06/21 03:56:27;;;;;;;7.60;1.95;;;;;;;17.75;79.54;97319.84;1652154;86;21094;-67
2021/06/21 03:58:54;;;;;;;3.52;2.15;;;;;;;17.75;79.66;97322.47;1683664;84;21030;-67
2021/06/21 04:01:20;;;;;;;2.58;1.62;;;;;;;17.76;79.78;97322.78;1652657;87;21018;-66
2021/06/21 04:03:47;;;;;;;3.12;1.50;;;;;;;17.82;79.51;97314.89;1683691;84;21550;-71
2021/06/21 04:06:14;;;;;;;6.10;2.08;;;;;;;17.92;79.15;97323.68;1652552;87;21007;-71
2021/06/21 04:08:41;;;;;;;4.25;2.47;;;;;;;17.99;79.05;97328.41;1683341;85;21042;-73
2021/06/21 04:11:08;;;;;;;3.33;1.90;;;;;;;18.11;78.70;97325.97;1652587;86;21082;-66
2021/06/21 04:13:35;;;;;;;4.05;2.17;;;;;;;18.24;78.30;97326.77;1683540;84;21005;-68
2021/06/21 04:16:02;;;;;;;3.90;1.95;;;;;;;18.36;77.68;97328.25;1650865;87;21148;-68
2021/06/21 04:18:29;;;;;;;2.42;1.85;;;;;;;18.43;77.42;97323.77;1683602;85;21117;-66
2021/06/21 04:20:58;;;;;;;3.35;2.20;;;;;;;18.46;77.34;97321.53;1652612;85;21073;-68
2021/06/21 04:23:25;;;;;;;3.37;2.30;;;;;;;18.53;77.11;97328.60;1684406;84;21136;-66
2021/06/21 04:25:52;;;;;;;7.90;2.87;;;;;;;18.70;76.43;97325.31;1652638;85;21525;-67
2021/06/21 04:28:20;;;;;;;4.55;2.72;;;;;;;18.77;75.98;97331.84;1663584;85;20998;-71
2021/06/21 04:30:48;;;;;;;6.42;2.98;;;;;;;18.85;75.85;97333.73;1652648;87;21066;-71
2021/06/21 04:33:15;;;;;;;4.62;2.50;;;;;;;18.95;75.46;97326.69;1683102;85;21015;-72
2021/06/21 04:35:42;;;;;;;4.37;2.60;;;;;;;19.10;75.25;97321.98;1664743;85;21049;-72
2021/06/21 04:38:09;;;;;;;4.87;2.95;;;;;;;19.17;74.41;97327.19;1669855;85;21513;-75
2021/06/21 04:40:37;;;;;;;5.55;2.87;;;;;;;19.18;74.28;97323.02;1669402;84;21026;-74
2021/06/21 04:43:04;;;;;;;3.67;1.98;;;;;;;19.21;74.28;97325.75;1669451;85;21048;-77
2021/06/21 04:45:32;;;;;;;7.45;3.00;;;;;;;19.31;74.32;97321.62;1669530;84;21076;-73
2021/06/21 04:47:58;;;;;;;6.60;2.90;;;;;;;19.34;74.00;97335.67;1669506;85;21080;-76
2021/06/21 04:50:27;;;;;;;3.92;2.22;;;;;;;19.41;73.85;97327.20;1669654;86;21174;-73
2021/06/21 04:52:54;;;;;;;4.92;2.87;;;;;;;19.52;73.86;97331.53;1703344;84;21050;-63
2021/06/21 04:55:23;;;;;;;6.12;2.42;;;;;;;19.59;73.65;97332.28;1703449;84;20998;-75
2021/06/21 04:57:50;;;;;;;4.60;1.87;;;;;;;19.57;73.50;97335.66;1701190;84;21696;-68
2021/06/21 05:00:20;;;;;;;13.60;7.12;;;;;;;19.54;73.61;97333.43;1700762;84;21065;-73
2021/06/21 05:02:49;;;;;;;21.55;10.43;;;;;;;19.55;73.49;97326.64;1701231;84;21040;-70
2021/06/21 05:05:19;;;;;;;10.72;5.42;;;;;;;19.52;73.59;97331.53;1701138;84;21072;-71
2021/06/21 05:07:51;;;;;;;6.78;4.28;;;;;;;19.51;73.39;97331.23;1696111;85;21096;-71
2021/06/21 05:10:20;;;;;;;6.35;3.80;;;;;;;19.42;73.93;97327.55;1676642;84;21160;-71
2021/06/21 05:12:48;;;;;;;6.95;3.50;;;;;;;19.25;75.12;97319.04;1698185;84;21080;-63
2021/06/21 05:15:16;;;;;;;5.25;3.02;;;;;;;19.22;75.33;97321.56;1694495;85;21068;-65
2021/06/21 05:17:44;;;;;;;4.60;2.77;;;;;;;19.18;76.09;97319.06;1695388;85;20962;-65
2021/06/21 05:20:12;;;;;;;3.65;2.27;;;;;;;19.24;75.72;97322.17;1694901;85;21065;-65
2021/06/21 05:23:05;;;;;;;1.85;1.35;;;;;;;19.36;75.69;97321.80;1602907;86;21155;-66
2021/06/21 05:25:34;;;;;;;2.35;1.85;;;;;;;19.50;75.16;97321.71;1644454;86;21209;-64
2021/06/21 05:28:03;;;;;;;3.33;2.20;;;;;;;19.59;74.53;97321.25;1646556;86;21113;-65
2021/06/21 05:30:30;;;;;;;3.55;1.67;;;;;;;19.63;74.31;97313.72;1644061;86;20998;-65
2021/06/21 05:32:57;;;;;;;2.72;1.85;;;;;;;19.69;73.74;97309.70;1629345;85;21549;-65
2021/06/21 05:35:25;;;;;;;3.05;2.00;;;;;;;19.87;73.37;97326.08;1624388;87;20995;-66
2021/06/21 05:37:52;;;;;;;1.92;1.40;;;;;;;20.01;72.75;97326.75;1623218;87;21073;-65
2021/06/21 05:40:19;;;;;;;3.42;1.80;;;;;;;20.06;72.52;97326.41;1622559;88;21189;-62
2021/06/21 05:42:46;;;;;;;2.10;1.57;;;;;;;20.00;72.61;97329.11;1622568;87;21126;-63
2021/06/21 05:45:16;;;;;;;3.52;1.62;;;;;;;20.24;71.65;97330.36;1650593;85;21133;-65
2021/06/21 05:47:45;;;;;;;3.33;1.60;;;;;;;20.33;71.62;97329.09;1657353;85;21180;-64
2021/06/21 05:50:14;;;;;;;2.30;1.50;;;;;;;20.41;71.35;97329.82;1657359;85;20998;-64
2021/06/21 05:52:41;;;;;;;2.42;1.67;;;;;;;20.54;71.07;97335.77;1657372;85;21085;-62
2021/06/21 05:55:10;;;;;;;2.65;1.50;;;;;;;20.46;71.08;97334.73;1657122;87;21058;-64
2021/06/21 05:57:37;;;;;;;2.77;1.87;;;;;;;20.68;70.95;97335.08;1657433;85;21038;-64
2021/06/21 06:00:06;;;;;;;3.90;1.82;;;;;;;20.77;70.08;97336.41;1657350;85;21066;-68
2021/06/21 06:02:33;;;;;;;3.15;1.65;;;;;;;20.67;69.87;97320.27;1657243;85;21076;-64
2021/06/21 06:05:00;;;;;;;2.95;1.72;;;;;;;20.94;69.46;97343.17;1649701;85;21598;-64
2021/06/21 06:07:27;;;;;;;5.62;2.47;;;;;;;21.01;69.03;97343.38;1641050;86;21117;-62
2021/06/21 06:09:54;;;;;;;3.30;1.75;;;;;;;20.94;69.56;97342.66;1641556;86;21190;-65
2021/06/21 06:12:21;;;;;;;4.35;2.25;;;;;;;21.05;68.71;97349.04;1646873;85;21037;-69
2021/06/21 06:14:49;;;;;;;3.22;2.10;;;;;;;21.01;68.75;97343.91;1657000;85;21129;-62
2021/06/21 06:17:16;;;;;;;2.52;1.40;;;;;;;21.19;68.39;97339.42;1656840;85;21069;-70
2021/06/21 06:19:43;;;;;;;2.30;1.72;;;;;;;21.33;67.91;97336.05;1657168;85;21125;-72
2021/06/21 06:22:11;;;;;;;3.90;1.80;;;;;;;21.29;67.92;97333.06;1655997;85;21128;-69
2021/06/21 06:24:38;;;;;;;2.27;1.65;;;;;;;21.43;67.51;97337.65;1641137;86;21057;-75
2021/06/21 06:27:06;;;;;;;2.25;1.45;;;;;;;21.48;66.72;97334.30;1641329;86;21076;-73
2021/06/21 06:29:33;;;;;;;3.02;1.75;;;;;;;21.57;66.73;97335.59;1641267;86;21010;-73
2021/06/21 06:32:02;;;;;;;2.33;1.40;;;;;;;21.58;66.65;97331.42;1641421;86;21786;-74
2021/06/21 06:34:29;;;;;;;2.30;1.40;;;;;;;21.78;65.88;97335.06;1641280;86;21049;-73
2021/06/21 06:36:56;;;;;;;2.52;1.65;;;;;;;21.88;65.68;97334.48;1637292;86;21066;-75
2021/06/21 06:39:24;;;;;;;2.35;1.60;;;;;;;22.03;65.65;97330.89;1624525;88;21050;-72
2021/06/21 06:41:51;;;;;;;2.37;1.57;;;;;;;22.15;64.50;97336.98;1624649;87;21634;-73
2021/06/21 06:44:18;;;;;;;2.42;1.62;;;;;;;22.26;64.37;97337.48;1614933;89;21567;-74
2021/06/21 06:46:46;;;;;;;2.02;1.60;;;;;;;22.42;64.52;97334.65;1614916;89;21052;-75
2021/06/21 06:49:13;;;;;;;3.85;1.52;;;;;;;22.35;63.80;97332.66;1615247;89;21497;-74
2021/06/21 06:51:45;;;;;;;3.67;1.47;;;;;;;22.37;63.85;97325.30;1614926;89;21090;-74
2021/06/21 06:57:00;;;;;;;4.05;1.32;;;;;;;22.74;62.99;97330.59;1656005;85;21129;-67
2021/06/21 06:59:39;;;;;;;3.05;1.50;;;;;;;22.69;62.57;97325.19;1653647;86;21003;-68
2021/06/21 07:02:11;;;;;;;1.95;1.37;;;;;;;22.75;62.98;97329.55;1654381;85;21568;-67
2021/06/21 07:04:39;;;;;;;1.60;1.40;;;;;;;22.86;62.10;97329.22;1654571;86;21514;-68
2021/06/21 07:07:07;;;;;;;1.77;1.47;;;;;;;22.91;62.72;97331.46;1654251;87;21062;-67
2021/06/21 07:09:35;;;;;;;1.42;1.27;;;;;;;23.05;62.54;97327.48;1654447;86;21451;-67
2021/06/21 07:12:03;;;;;;;1.72;1.35;;;;;;;23.18;61.15;97327.20;1654670;85;21582;-67
2021/06/21 07:14:30;;;;;;;2.17;1.50;;;;;;;23.31;60.84;97319.45;1654633;87;21569;-67
2021/06/21 07:16:57;;;;;;;2.02;1.50;;;;;;;23.38;60.63;97315.35;1654416;87;21182;-67
2021/06/21 07:19:24;;;;;;;1.67;1.50;;;;;;;23.48;60.71;97318.19;1654431;85;21066;-67
2021/06/21 07:21:52;;;;;;;1.52;1.20;;;;;;;23.57;61.01;97316.23;1656933;86;21057;-67
2021/06/21 07:24:21;;;;;;;1.27;1.12;;;;;;;23.71;59.77;97311.41;1664210;86;21076;-67
2021/06/21 07:26:50;;;;;;;2.47;1.00;;;;;;;23.74;58.89;97302.16;1664099;86;21104;-70
2021/06/21 07:29:18;;;;;;;1.40;1.00;;;;;;;23.67;58.15;97312.13;1664355;86;21101;-67
2021/06/21 07:31:47;;;;;;;1.00;0.90;;;;;;;23.77;57.60;97318.41;1647742;86;21081;-67
2021/06/21 07:34:14;;;;;;;1.60;1.50;;;;;;;23.95;57.28;97306.73;1637832;86;21515;-65
2021/06/21 07:36:41;;;;;;;1.90;1.02;;;;;;;24.11;57.47;97307.23;1637524;86;21054;-67
2021/06/21 07:39:08;;;;;;;1.50;1.20;;;;;;;24.21;56.84;97313.21;1637824;87;21069;-67
2021/06/21 07:41:35;;;;;;;1.52;1.07;;;;;;;24.21;57.14;97313.21;1637557;88;21621;-67
2021/06/21 07:44:03;;;;;;;1.62;1.02;;;;;;;24.41;56.28;97314.30;1637708;86;21546;-67
2021/06/21 07:46:32;;;;;;;1.47;1.00;;;;;;;24.46;57.25;97313.56;1637724;86;21105;-65
2021/06/21 07:49:00;;;;;;;2.05;1.22;;;;;;;24.47;56.67;97311.19;1637828;88;21117;-65
2021/06/21 07:51:28;;;;;;;4.28;2.98;;;;;;;24.45;56.73;97309.30;1637593;87;21085;-69
2021/06/21 07:53:54;;;;;;;6.30;3.37;;;;;;;24.65;55.53;97309.55;1637077;86;21062;-71
2021/06/21 07:56:23;;;;;;;1.82;1.30;;;;;;;24.72;55.14;97308.02;1626956;87;21054;-69
2021/06/21 07:58:50;;;;;;;2.95;1.07;;;;;;;24.85;55.04;97306.35;1628802;87;21107;-69
2021/06/21 08:01:17;;;;;;;1.37;1.02;;;;;;;24.76;55.34;97309.94;1635016;88;21057;-69
2021/06/21 08:03:46;;;;;;;1.02;0.93;;;;;;;24.85;53.98;97311.14;1635572;86;21081;-64
2021/06/21 08:06:13;;;;;;;1.32;0.90;;;;;;;24.90;54.29;97305.09;1636018;86;21133;-68
2021/06/21 08:08:42;;;;;;;1.37;0.95;;;;;;;24.95;54.08;97309.10;1635915;86;21699;-70
2021/06/21 08:11:11;;;;;;;1.32;1.10;;;;;;;24.96;54.04;97307.54;1635848;87;21101;-67
2021/06/21 08:13:39;;;;;;;1.40;1.05;;;;;;;25.13;54.48;97310.63;1635148;88;21111;-67
2021/06/21 08:16:07;;;;;;;1.75;1.10;;;;;;;25.17;53.83;97307.23;1635668;88;21057;-66
2021/06/21 08:18:35;;;;;;;2.90;0.80;;;;;;;25.17;53.01;97310.41;1635996;88;21077;-68
2021/06/21 08:21:03;;;;;;;1.22;0.95;;;;;;;25.50;52.02;97304.84;1636101;86;21071;-67
2021/06/21 08:23:31;;;;;;;1.75;1.10;;;;;;;25.68;51.76;97300.49;1626470;87;21145;-67
2021/06/21 08:25:58;;;;;;;0.78;0.75;;;;;;;25.66;51.10;97305.28;1625660;87;21202;-74
2021/06/21 08:28:25;;;;;;;3.12;0.95;;;;;;;25.72;50.87;97300.26;1625556;86;21101;-73
2021/06/21 08:30:52;;;;;;;1.37;0.90;;;;;;;25.58;51.75;97293.78;1624586;87;21101;-74
2021/06/21 08:33:19;;;;;;;1.75;0.70;;;;;;;25.69;51.79;97293.32;1625060;87;21046;-73
2021/06/21 08:38:53;;;;;;;1.12;0.85;;;;;;;25.90;50.69;97287.91;1628323;88;21153;-73
2021/06/21 08:41:21;;;;;;;1.12;0.90;;;;;;;25.98;50.16;97297.27;1624008;88;21102;-76
2021/06/21 08:43:49;;;;;;;0.93;0.80;;;;;;;26.09;49.33;97298.92;1624542;88;21641;-74
2021/06/21 08:46:18;;;;;;;1.25;1.00;;;;;;;26.14;49.75;97291.50;1599804;88;21669;-73
2021/06/21 08:48:47;;;;;;;2.47;1.00;;;;;;;26.02;49.68;97299.68;1616324;87;21113;-73
2021/06/21 08:51:16;;;;;;;1.05;0.88;;;;;;;26.17;48.92;97298.96;1598520;89;21045;-73
2021/06/21 08:53:43;;;;;;;1.17;0.98;;;;;;;26.21;48.50;97307.54;1598357;89;21053;-73
2021/06/21 08:56:11;;;;;;;0.90;0.90;;;;;;;26.27;48.10;97305.69;1598582;89;21873;-73
2021/06/21 08:58:39;;;;;;;1.00;0.90;;;;;;;26.20;47.54;97305.13;1598075;88;21156;-73
2021/06/21 09:01:07;;;;;;;2.20;0.90;;;;;;;26.29;48.11;97308.38;1598117;89;21681;-73
2021/06/21 09:03:35;;;;;;;1.40;0.90;;;;;;;26.17;47.86;97304.28;1598248;89;21045;-73
2021/06/21 09:06:07;;;;;;;1.00;0.78;;;;;;;26.34;48.17;97302.29;1597964;89;21102;-72
2021/06/21 09:08:56;;;;;;;2.45;0.95;;;;;;;26.31;46.58;97307.58;1596755;89;21096;-73
2021/06/21 09:11:49;;;;;;;2.80;0.95;;;;;;;26.44;47.85;97297.80;1598444;89;21566;-73
2021/06/21 09:14:29;;;;;;;1.80;0.60;;;;;;;26.47;47.13;97310.31;1598395;88;21152;-73
2021/06/21 09:17:03;;;;;;;0.80;0.80;;;;;;;26.61;47.47;97298.95;1601904;88;21140;-73
2021/06/21 09:19:32;;;;;;;0.98;0.88;;;;;;;26.68;47.61;97301.36;1620668;88;21125;-66
2021/06/21 09:21:59;;;;;;;1.07;0.80;;;;;;;26.78;46.45;97283.54;1602342;88;21089;-67
2021/06/21 09:24:29;;;;;;;1.37;0.88;;;;;;;26.84;47.34;97302.52;1622417;87;21610;-67
2021/06/21 09:27:00;;;;;;;0.90;0.75;;;;;;;26.99;47.20;97306.27;1622310;88;21133;-67
2021/06/21 09:29:41;;;;;;;0.72;0.70;;;;;;;27.21;46.47;97304.17;1622403;88;21097;-72
2021/06/21 09:32:08;;;;;;;0.85;0.68;;;;;;;27.28;45.76;97304.19;1622420;88;21582;-72
2021/06/21 09:34:42;;;;;;;0.75;0.70;;;;;;;27.24;45.94;97291.64;1622347;88;21118;-72
2021/06/21 09:37:15;;;;;;;2.05;1.10;;;;;;;27.37;45.73;97313.80;1624909;87;21714;-72
2021/06/21 09:39:45;;;;;;;2.55;0.60;;;;;;;27.52;44.79;97299.17;1635303;86;21604;-72
2021/06/21 09:42:24;;;;;;;1.60;0.60;;;;;;;27.46;43.57;97298.91;1633925;86;21093;-72
2021/06/21 09:44:54;;;;;;;2.45;0.80;;;;;;;27.56;44.11;97298.09;1633112;88;21081;-72
2021/06/21 09:47:35;;;;;;;1.05;0.75;;;;;;;27.87;43.83;97294.87;1633206;88;21139;-73
2021/06/21 09:50:22;;;;;;;2.75;0.90;;;;;;;28.25;42.66;97290.28;1633109;88;21088;-72
2021/06/21 09:52:57;;;;;;;0.68;0.68;;;;;;;28.00;43.04;97276.45;1633213;86;21025;-74
2021/06/21 09:55:31;;;;;;;1.70;1.50;;;;;;;28.23;42.31;97281.22;1633168;88;21076;-73
2021/06/21 09:58:15;;;;;;;2.33;0.70;;;;;;;28.61;44.16;97281.60;1649767;86;21601;-72
2021/06/21 10:00:50;;;;;;;2.70;0.80;;;;;;;28.75;42.46;97282.66;1667241;86;21466;-73
2021/06/21 10:03:27;;;;;;;1.83;0.77;;;;;;;29.13;42.68;97277.08;1666692;86;21242;-73
2021/06/21 10:06:11;;;;;;;3.20;0.88;;;;;;;29.38;39.37;97280.12;1666963;86;21260;-73
2021/06/21 10:08:47;;;;;;;0.93;0.70;;;;;;;29.51;39.10;97274.94;1638518;86;21109;-72
2021/06/21 10:11:37;;;;;;;3.37;1.10;;;;;;;29.58;39.83;97274.07;1667178;86;21029;-72
2021/06/21 10:14:10;;;;;;;1.07;0.98;;;;;;;29.57;38.68;97279.72;1659316;86;21148;-73
2021/06/21 10:16:38;;;;;;;3.22;0.88;;;;;;;29.42;40.41;97270.45;1659463;86;21064;-72
2021/06/21 10:19:08;;;;;;;0.85;0.60;;;;;;;29.98;40.91;97273.47;1666529;86;21117;-72
2021/06/21 10:21:38;;;;;;;0.80;0.70;;;;;;;30.06;40.09;97270.17;1666600;86;21041;-67
2021/06/21 10:24:08;;;;;;;3.83;1.20;;;;;;;30.31;38.89;97277.91;1649384;86;21159;-66
2021/06/21 10:26:37;;;;;;;1.10;1.00;;;;;;;29.88;37.35;97278.94;1619358;86;21065;-66
2021/06/21 10:29:05;;;;;;;2.47;1.12;;;;;;;30.37;35.97;97278.13;1615808;87;21172;-67
2021/06/21 10:31:33;;;;;;;0.90;0.80;;;;;;;30.71;36.60;97277.19;1580377;89;21192;-65
2021/06/21 10:34:03;;;;;;;0.78;0.78;;;;;;;30.61;36.66;97278.94;1608813;87;21077;-66
2021/06/21 10:36:46;;;;;;;1.42;0.80;;;;;;;30.77;36.25;97270.16;1634149;86;21116;-66
2021/06/21 10:39:17;;;;;;;3.47;1.10;;;;;;;30.56;36.25;97272.30;1667349;86;21101;-67
2021/06/21 10:42:10;;;;;;;2.80;0.90;;;;;;;30.74;36.14;97265.92;1666465;86;21170;-67
2021/06/21 10:44:57;;;;;;;1.17;1.05;;;;;;;31.03;35.70;97252.65;1666852;86;21069;-67
2021/06/21 10:47:42;;;;;;;1.10;0.90;;;;;;;30.17;36.96;97263.63;1667340;86;21041;-67
2021/06/21 10:50:25;;;;;;;0.75;0.70;;;;;;;30.83;35.88;97264.97;1667102;86;21165;-67
2021/06/21 10:52:58;;;;;;;0.88;0.78;;;;;;;30.95;36.08;97261.85;1666957;86;21557;-67
2021/06/21 10:55:36;;;;;;;3.47;0.80;;;;;;;30.77;37.32;97263.99;1666385;86;21603;-67
2021/06/21 10:58:10;;;;;;;1.05;0.80;;;;;;;30.56;35.76;97260.77;1642709;86;21057;-65
2021/06/21 11:00:45;;;;;;;1.42;1.17;;;;;;;30.56;35.76;97260.77;1631102;86;21069;-65
2021/06/21 11:03:30;;;;;;;0.72;0.70;;;;;;;30.99;36.49;97247.61;1634346;88;21041;-65
2021/06/21 11:06:01;;;;;;;1.40;0.93;;;;;;;31.14;36.10;97261.87;1634829;88;21105;-65
2021/06/21 11:08:43;;;;;;;3.05;0.90;;;;;;;31.39;34.91;97252.09;1634955;88;21060;-65
2021/06/21 11:11:38;;;;;;;3.47;1.27;;;;;;;31.36;34.31;97271.47;1634762;88;21062;-66
2021/06/21 11:14:27;;;;;;;1.85;0.90;;;;;;;31.44;34.37;97269.44;1633239;86;21093;-66
2021/06/21 11:17:19;;;;;;;0.88;0.75;;;;;;;30.93;35.57;97263.47;1634926;88;21490;-66
2021/06/21 11:19:47;;;;;;;1.30;0.98;;;;;;;30.82;35.37;97262.56;1626451;88;21612;-65
2021/06/21 11:22:15;;;;;;;1.60;0.75;;;;;;;31.01;35.34;97255.38;1634622;88;21124;-65
2021/06/21 11:24:49;;;;;;;1.92;1.05;;;;;;;31.52;35.20;97265.54;1634897;88;21085;-66
2021/06/21 11:27:30;;;;;;;2.25;1.02;;;;;;;31.85;33.68;97259.64;1635089;88;21056;-66
2021/06/21 11:30:01;;;;;;;2.17;0.98;;;;;;;31.34;33.61;97259.68;1633798;86;21577;-65
2021/06/21 11:32:28;;;;;;;3.83;1.05;;;;;;;32.08;32.99;97258.45;1635148;88;21066;-66
2021/06/21 11:35:00;;;;;;;2.52;0.85;;;;;;;32.30;32.81;97245.91;1634983;87;21113;-67
2021/06/21 11:37:40;;;;;;;1.98;0.88;;;;;;;32.61;32.57;97247.99;1633259;88;21054;-68
2021/06/21 11:40:19;;;;;;;2.27;0.80;;;;;;;33.00;31.63;97244.16;1625430;88;21050;-67
2021/06/21 11:43:06;;;;;;;2.22;1.30;;;;;;;33.10;31.60;97236.42;1625149;88;21023;-65
2021/06/21 11:46:00;;;;;;;1.75;1.30;;;;;;;32.86;33.09;97244.22;1625343;88;21082;-66
2021/06/21 11:48:31;;;;;;;1.60;1.02;;;;;;;32.73;31.92;97246.38;1625270;88;21157;-68
2021/06/21 11:51:06;;;;;;;3.10;1.37;;;;;;;33.27;31.48;97241.39;1625226;88;21531;-70
2021/06/21 11:53:33;;;;;;;1.72;1.20;;;;;;;33.95;30.69;97241.59;1623972;88;21118;-64
2021/06/21 11:56:02;;;;;;;1.40;1.20;;;;;;;34.42;30.99;97240.03;1625432;88;21074;-65
2021/06/21 11:58:31;;;;;;;1.52;1.07;;;;;;;33.93;30.75;97245.12;1625500;88;21222;-67